Time;durP1;ratioP1;P1;durP2;ratioP2;P2;SDS_P1;SDS_P2;PMS_P1;PMS_P2;Temp;Humidity;BMP_temperature;BMP_pressure;BME280_temperature;BME280_humidity;BME280_pressure;Samples;Min_cycle;Max_cycle;Signal;HPM_P1;HPM_P2
2022/08/10 00:02:32;;;;;;;3.63;2.30;;;;;;;16.50;81.48;102923.19;4977557;28;20252;-69
2022/08/10 00:04:57;;;;;;;3.57;2.27;;;;;;;16.51;80.86;102915.47;4988289;28;20214;-71
2022/08/10 00:07:23;;;;;;;4.03;2.83;;;;;;;16.49;81.14;102916.25;4984988;28;20666;-70
2022/08/10 00:09:48;;;;;;;3.37;2.40;;;;;;;16.46;81.55;102914.47;4970750;28;20189;-68
2022/08/10 00:12:14;;;;;;;3.80;2.60;;;;;;;16.50;81.23;102916.31;4970696;28;20196;-70
2022/08/10 00:14:39;;;;;;;2.70;2.50;;;;;;;16.45;80.88;102924.75;4970836;28;20595;-69
2022/08/10 00:17:05;;;;;;;2.70;2.50;;;;;;;16.42;81.31;102919.50;4970619;28;20200;-69
2022/08/10 00:19:30;;;;;;;4.67;2.83;;;;;;;16.44;82.50;102917.84;4974703;28;20283;-70
2022/08/10 00:21:56;;;;;;;5.77;2.70;;;;;;;16.41;82.25;102916.03;4989722;28;20834;-69
2022/08/10 00:24:21;;;;;;;5.00;2.83;;;;;;;16.46;82.69;102921.34;4989924;28;20198;-68
2022/08/10 00:26:47;;;;;;;4.93;2.83;;;;;;;16.42;82.76;102920.38;4989675;28;20196;-70
2022/08/10 00:29:12;;;;;;;3.27;2.50;;;;;;;16.40;83.17;102914.25;4988585;28;20222;-70
2022/08/10 00:31:38;;;;;;;3.03;2.73;;;;;;;16.32;83.49;102918.34;4984251;28;20685;-69
2022/08/10 00:34:03;;;;;;;3.53;2.70;;;;;;;16.27;83.00;102925.06;4989599;28;20223;-70
2022/08/10 00:36:28;;;;;;;5.33;2.90;;;;;;;16.20;83.69;102911.91;4989281;28;20184;-70
2022/08/10 00:38:54;;;;;;;3.10;2.80;;;;;;;16.19;83.89;102913.63;4989775;28;20254;-70
2022/08/10 00:41:19;;;;;;;3.33;2.67;;;;;;;16.09;83.77;102908.13;4989494;28;20242;-70
2022/08/10 00:43:45;;;;;;;2.67;2.43;;;;;;;16.05;83.04;102902.00;4989668;28;20187;-70
2022/08/10 00:46:10;;;;;;;3.13;2.83;;;;;;;16.07;82.51;102909.81;4989658;28;20767;-70
2022/08/10 00:48:36;;;;;;;3.43;2.50;;;;;;;16.03;82.77;102905.38;4988113;28;20943;-69
2022/08/10 00:51:01;;;;;;;3.53;3.00;;;;;;;15.97;82.69;102913.81;4973754;28;20247;-69
2022/08/10 00:53:27;;;;;;;4.67;2.97;;;;;;;15.91;83.06;102921.38;4974086;28;20207;-69
2022/08/10 00:55:53;;;;;;;5.13;3.43;;;;;;;15.86;83.25;102912.59;4973838;28;20189;-69
2022/08/10 00:58:18;;;;;;;4.50;2.70;;;;;;;15.80;83.42;102903.78;4973544;28;20183;-69
2022/08/10 01:00:46;;;;;;;5.43;2.97;;;;;;;15.83;83.13;102907.34;4973729;28;20195;-69
2022/08/10 01:03:12;;;;;;;5.80;2.97;;;;;;;15.77;84.12;102901.97;4973397;28;20732;-69
2022/08/10 01:05:56;;;;;;;4.93;2.97;;;;;;;15.76;83.79;102899.34;4973526;28;20184;-69
2022/08/10 01:08:44;;;;;;;3.47;2.83;;;;;;;15.74;84.16;102901.88;4973432;28;20650;-69
2022/08/10 01:11:28;;;;;;;3.67;2.73;;;;;;;15.71;83.23;102912.09;4972363;28;20662;-70
2022/08/10 01:14:03;;;;;;;4.00;2.63;;;;;;;15.64;83.62;102905.00;4973608;28;20176;-69
2022/08/10 01:16:35;;;;;;;4.90;2.83;;;;;;;15.52;84.14;102906.31;4973540;28;20180;-69
2022/08/10 01:19:06;;;;;;;5.70;3.20;;;;;;;15.56;83.88;102903.88;4972289;28;20196;-70
2022/08/10 01:21:44;;;;;;;3.37;3.03;;;;;;;15.45;83.93;102906.94;4973398;28;20687;-71
2022/08/10 01:24:31;;;;;;;10.20;3.10;;;;;;;15.41;84.11;102905.06;4973418;28;20639;-70
2022/08/10 01:27:25;;;;;;;4.30;2.83;;;;;;;15.46;84.05;102903.50;4992125;28;20562;-70
2022/08/10 01:30:00;;;;;;;4.10;3.10;;;;;;;15.42;84.59;102910.28;4985095;28;20193;-69
2022/08/10 01:32:47;;;;;;;4.60;3.57;;;;;;;15.37;85.07;102908.41;4985719;28;20751;-69
2022/08/10 01:35:40;;;;;;;3.30;3.00;;;;;;;15.33;84.87;102907.38;4992683;28;20180;-70
2022/08/10 01:38:09;;;;;;;3.50;3.20;;;;;;;15.29;85.28;102909.81;4992640;28;20564;-70
2022/08/10 01:40:40;;;;;;;4.20;3.80;;;;;;;15.28;85.21;102906.34;4992430;28;20184;-69
2022/08/10 01:43:09;;;;;;;4.00;3.33;;;;;;;15.27;85.51;102911.44;4992359;28;20230;-70
2022/08/10 01:45:42;;;;;;;3.47;2.87;;;;;;;15.22;85.69;102908.72;4991864;28;20191;-69
2022/08/10 01:48:29;;;;;;;5.33;3.30;;;;;;;15.22;85.44;102905.25;4978342;28;20718;-70
2022/08/10 01:51:18;;;;;;;3.37;3.07;;;;;;;15.15;86.52;102901.59;4992058;28;20203;-69
2022/08/10 01:53:50;;;;;;;5.27;3.10;;;;;;;15.17;86.14;102904.22;4988465;28;20203;-69
2022/08/10 01:56:19;;;;;;;4.90;3.17;;;;;;;15.20;85.68;102901.75;4992156;28;20188;-70
2022/08/10 01:58:48;;;;;;;4.83;3.47;;;;;;;15.14;86.73;102899.84;4991183;28;20168;-70
2022/08/10 02:01:19;;;;;;;5.47;3.07;;;;;;;15.15;86.08;102893.00;4986415;28;20188;-70
2022/08/10 02:03:48;;;;;;;3.00;2.77;;;;;;;15.10;85.92;102894.53;4972667;28;20173;-70
2022/08/10 02:06:15;;;;;;;4.50;2.90;;;;;;;15.07;86.20;102890.16;4972241;28;20188;-70
2022/08/10 02:08:42;;;;;;;3.37;3.07;;;;;;;15.07;86.20;102895.31;4972259;28;20197;-68
2022/08/10 02:11:10;;;;;;;3.47;3.00;;;;;;;15.05;86.41;102888.34;4972333;28;20228;-70
2022/08/10 02:13:38;;;;;;;3.87;2.90;;;;;;;15.05;86.58;102883.19;4975869;28;20204;-69
2022/08/10 02:16:05;;;;;;;5.93;3.20;;;;;;;14.98;87.06;102888.94;4972227;28;20192;-69
2022/08/10 02:18:32;;;;;;;3.40;2.97;;;;;;;15.02;87.26;102891.72;4972748;28;20287;-69
2022/08/10 02:21:03;;;;;;;4.20;3.57;;;;;;;14.99;87.99;102890.69;4972278;28;20199;-70
2022/08/10 02:23:31;;;;;;;3.77;3.20;;;;;;;14.97;87.65;102900.09;5003283;28;20230;-70
2022/08/10 02:26:00;;;;;;;3.97;2.70;;;;;;;15.03;88.17;102900.31;4972151;28;20235;-70
2022/08/10 02:28:30;;;;;;;3.67;3.30;;;;;;;15.00;87.61;102893.34;4975197;28;20215;-69
2022/08/10 02:31:01;;;;;;;5.10;3.60;;;;;;;14.92;87.09;102897.34;4980924;28;20203;-69
2022/08/10 02:33:29;;;;;;;4.27;3.00;;;;;;;14.85;87.73;102894.50;4973023;28;20262;-70
2022/08/10 02:35:59;;;;;;;4.27;2.63;;;;;;;14.78;87.65;102903.72;4971944;28;20267;-70
2022/08/10 02:38:32;;;;;;;3.77;3.13;;;;;;;14.77;87.80;102899.41;4971697;28;20196;-70
2022/08/10 02:41:07;;;;;;;5.43;2.77;;;;;;;14.79;87.25;102890.03;4972006;28;20176;-69
2022/08/10 02:43:45;;;;;;;3.87;3.03;;;;;;;14.83;86.88;102899.59;4982480;28;20298;-70
2022/08/10 02:46:15;;;;;;;3.10;2.60;;;;;;;14.81;86.84;102900.38;4975242;28;20650;-70
2022/08/10 02:48:45;;;;;;;3.80;3.00;;;;;;;14.78;87.15;102889.97;4983485;28;20234;-69
2022/08/10 02:51:19;;;;;;;3.43;2.93;;;;;;;14.73;87.01;102897.53;4975124;28;20200;-69
2022/08/10 02:53:50;;;;;;;3.50;3.17;;;;;;;14.73;86.99;102894.97;4971619;28;20189;-68
2022/08/10 02:56:24;;;;;;;3.30;3.00;;;;;;;14.71;87.23;102886.31;4971355;28;20243;-70
2022/08/10 02:59:22;;;;;;;4.17;3.20;;;;;;;14.68;88.25;102895.63;4982306;28;20633;-70
2022/08/10 03:01:53;;;;;;;4.20;3.00;;;;;;;14.65;88.25;102885.19;4976526;28;20243;-70
2022/08/10 03:04:22;;;;;;;3.37;3.07;;;;;;;14.62;88.28;102885.97;4971521;28;20239;-70
2022/08/10 03:06:59;;;;;;;7.50;3.23;;;;;;;14.65;87.06;102885.19;4971103;28;20651;-70
2022/08/10 03:09:27;;;;;;;4.40;3.10;;;;;;;14.62;87.08;102885.09;4971383;28;20176;-70
2022/08/10 03:11:55;;;;;;;4.10;2.90;;;;;;;14.52;87.89;102880.41;4971790;28;20213;-68
2022/08/10 03:14:22;;;;;;;2.90;2.50;;;;;;;14.47;87.53;102877.69;4972489;28;20215;-70
2022/08/10 03:16:49;;;;;;;3.83;2.90;;;;;;;14.49;87.25;102878.63;4971826;28;21058;-71
2022/08/10 03:19:19;;;;;;;3.30;3.00;;;;;;;14.48;87.45;102873.41;4971089;28;20195;-70
2022/08/10 03:21:46;;;;;;;3.57;2.90;;;;;;;14.46;87.23;102882.78;4971085;28;20235;-69
2022/08/10 03:24:12;;;;;;;3.27;2.97;;;;;;;14.39;87.99;102883.38;4971996;28;20184;-70
2022/08/10 03:26:38;;;;;;;4.50;3.77;;;;;;;14.41;87.94;102884.31;4989165;28;20704;-69
2022/08/10 03:29:04;;;;;;;3.53;2.73;;;;;;;14.39;87.87;102886.84;4971074;28;20192;-69
2022/08/10 03:31:31;;;;;;;3.07;2.70;;;;;;;14.39;88.22;102885.94;4979922;28;20184;-69
2022/08/10 03:34:00;;;;;;;4.63;3.20;;;;;;;14.38;88.34;102895.41;4970828;28;20192;-70
2022/08/10 03:36:26;;;;;;;3.80;3.40;;;;;;;14.39;88.79;102902.31;4970636;28;20193;-71
2022/08/10 03:38:52;;;;;;;4.27;3.30;;;;;;;14.35;88.58;102897.84;4970819;28;20243;-70
2022/08/10 03:41:44;;;;;;;3.50;3.20;;;;;;;14.37;89.04;102903.94;4971059;28;20788;-71
2022/08/10 03:44:11;;;;;;;3.70;3.10;;;;;;;14.34;89.22;102895.22;4974055;28;20687;-71
2022/08/10 03:46:41;;;;;;;3.80;3.50;;;;;;;14.31;88.85;102897.69;4970677;28;20215;-70
2022/08/10 03:49:10;;;;;;;3.53;3.23;;;;;;;14.32;88.88;102899.44;4980084;28;20195;-68
2022/08/10 03:51:36;;;;;;;8.00;3.57;;;;;;;14.29;89.36;102896.75;4982699;28;20195;-71
2022/08/10 03:54:02;;;;;;;3.07;2.77;;;;;;;14.32;89.00;102902.88;4970670;28;20196;-71
2022/08/10 03:56:29;;;;;;;5.50;3.17;;;;;;;14.29;89.00;102902.78;4972893;28;20184;-71
2022/08/10 03:58:55;;;;;;;3.70;3.40;;;;;;;14.30;88.97;102893.34;4972074;28;20184;-69
2022/08/10 04:01:21;;;;;;;3.50;3.20;;;;;;;14.29;89.03;102892.47;4973756;28;20192;-70
2022/08/10 04:03:47;;;;;;;4.00;3.40;;;;;;;14.29;89.57;102897.63;4986036;28;20195;-69
2022/08/10 04:06:12;;;;;;;5.73;3.20;;;;;;;14.30;88.95;102899.38;4984603;28;20804;-70
2022/08/10 04:08:40;;;;;;;3.73;3.43;;;;;;;14.34;88.86;102905.53;4970304;28;20195;-71
2022/08/10 04:11:07;;;;;;;4.27;3.50;;;;;;;14.35;89.46;102895.28;4972818;28;20220;-71
2022/08/10 04:13:33;;;;;;;6.53;3.20;;;;;;;14.31;89.27;102902.84;4989590;28;20261;-71
2022/08/10 04:15:58;;;;;;;4.67;3.47;;;;;;;14.35;89.34;102903.00;4988082;28;20207;-70
2022/08/10 04:18:24;;;;;;;3.57;3.00;;;;;;;14.42;89.22;102904.13;4989391;28;20192;-71
2022/08/10 04:20:54;;;;;;;7.00;3.70;;;;;;;14.46;89.60;102895.69;4975397;28;20211;-71
2022/08/10 04:23:26;;;;;;;4.80;3.73;;;;;;;14.49;89.27;102895.78;4973499;28;20227;-71
2022/08/10 04:25:52;;;;;;;4.80;3.80;;;;;;;14.46;89.25;102903.41;4974728;28;20666;-70
2022/08/10 04:28:18;;;;;;;4.23;3.60;;;;;;;14.52;89.29;102903.63;4976795;28;20709;-70
2022/08/10 04:30:46;;;;;;;6.00;4.03;;;;;;;14.55;89.81;102908.91;4977426;28;20196;-71
2022/08/10 04:33:14;;;;;;;4.37;3.77;;;;;;;14.52;90.40;102908.78;4992469;28;20716;-71
2022/08/10 04:35:41;;;;;;;4.57;3.80;;;;;;;14.58;89.66;102909.88;4987884;28;20184;-70
2022/08/10 04:38:08;;;;;;;6.37;4.17;;;;;;;14.60;90.14;102908.22;4974092;28;20184;-71
2022/08/10 04:40:33;;;;;;;5.00;3.87;;;;;;;14.65;90.12;102916.16;4974151;28;20204;-70
2022/08/10 04:43:04;;;;;;;5.80;3.90;;;;;;;14.69;89.93;102913.72;4973936;28;20563;-71
2022/08/10 04:45:30;;;;;;;5.50;4.20;;;;;;;14.73;90.17;102915.59;4974106;28;20271;-71
2022/08/10 04:47:56;;;;;;;5.47;4.53;;;;;;;14.80;91.18;102920.16;4980165;28;20207;-72
2022/08/10 04:50:21;;;;;;;6.27;4.57;;;;;;;14.87;90.85;102918.69;4993468;28;20816;-72
2022/08/10 04:52:50;;;;;;;8.10;5.17;;;;;;;14.93;91.34;102922.34;4993297;28;20230;-71
2022/08/10 04:55:16;;;;;;;7.83;4.50;;;;;;;15.03;91.01;102923.53;4993452;28;20619;-71
2022/08/10 04:57:41;;;;;;;9.30;4.90;;;;;;;15.11;91.57;102922.09;4993076;28;20283;-71
2022/08/10 05:00:07;;;;;;;8.80;5.80;;;;;;;15.22;91.62;102924.22;4993284;28;20187;-70
2022/08/10 05:02:33;;;;;;;6.50;5.40;;;;;;;15.34;91.81;102926.38;4992771;28;20669;-70
2022/08/10 05:04:58;;;;;;;10.23;5.70;;;;;;;15.45;92.70;102923.31;4993351;28;20187;-71
2022/08/10 05:07:24;;;;;;;6.90;5.17;;;;;;;15.55;92.29;102927.94;4993026;28;20187;-71
2022/08/10 05:09:50;;;;;;;9.17;5.90;;;;;;;15.68;92.12;102929.22;4991866;28;20266;-71
2022/08/10 05:12:15;;;;;;;7.67;4.93;;;;;;;15.79;92.23;102925.28;4992866;28;20203;-69
2022/08/10 05:14:41;;;;;;;7.80;5.60;;;;;;;15.94;92.08;102933.50;4993070;28;20195;-71
2022/08/10 05:17:06;;;;;;;7.53;5.47;;;;;;;16.04;92.00;102933.84;4992739;28;20234;-71
2022/08/10 05:19:32;;;;;;;7.63;5.57;;;;;;;16.15;91.75;102936.72;4992854;28;20195;-70
2022/08/10 05:21:57;;;;;;;8.00;5.30;;;;;;;16.27;91.71;102929.34;4992650;28;20239;-71
2022/08/10 05:24:23;;;;;;;7.87;5.80;;;;;;;16.38;90.88;102933.13;4992801;28;20184;-71
2022/08/10 05:26:48;;;;;;;6.97;5.20;;;;;;;16.48;90.72;102930.03;4992511;28;20661;-70
2022/08/10 05:29:13;;;;;;;6.17;5.07;;;;;;;16.62;89.75;102931.31;4989911;28;20180;-71
2022/08/10 05:31:39;;;;;;;6.57;5.83;;;;;;;16.76;89.39;102920.47;4987622;28;20215;-71
2022/08/10 05:34:04;;;;;;;7.63;6.20;;;;;;;16.90;89.33;102918.28;4991242;28;20192;-70
2022/08/10 05:36:32;;;;;;;10.13;5.87;;;;;;;17.05;88.55;102929.94;4992410;28;20678;-70
2022/08/10 05:38:58;;;;;;;8.33;5.93;;;;;;;17.17;87.73;102924.19;4992552;28;20191;-71
2022/08/10 05:41:26;;;;;;;6.17;5.57;;;;;;;17.32;87.75;102927.19;4992229;28;20179;-71
2022/08/10 05:43:51;;;;;;;9.10;5.90;;;;;;;17.43;86.85;102924.06;4992520;28;20526;-70
2022/08/10 05:46:17;;;;;;;9.63;6.07;;;;;;;17.59;86.48;102920.97;4992054;28;20218;-71
2022/08/10 05:48:42;;;;;;;7.60;5.77;;;;;;;17.71;86.07;102918.69;4990991;28;20183;-71
2022/08/10 05:51:08;;;;;;;6.07;5.43;;;;;;;17.84;85.62;102920.75;4992309;28;20242;-70
2022/08/10 05:53:35;;;;;;;9.83;5.53;;;;;;;17.90;85.08;102914.78;4992131;28;20563;-69
2022/08/10 05:56:02;;;;;;;7.80;6.07;;;;;;;17.95;84.56;102913.19;4992168;28;20199;-69
2022/08/10 05:58:28;;;;;;;7.40;5.47;;;;;;;18.07;84.47;102905.69;4992022;28;20223;-71
2022/08/10 06:00:56;;;;;;;7.77;5.20;;;;;;;18.29;83.89;102910.50;4991834;28;20211;-70
2022/08/10 06:03:31;;;;;;;6.10;4.87;;;;;;;18.39;83.26;102907.28;4991772;28;20243;-71
2022/08/10 06:05:59;;;;;;;7.40;4.90;;;;;;;18.48;81.96;102910.06;4992297;28;20241;-71
2022/08/10 06:08:30;;;;;;;9.77;5.17;;;;;;;18.68;81.06;102911.31;4992171;28;20289;-70
2022/08/10 06:10:58;;;;;;;4.77;4.27;;;;;;;18.80;80.75;102908.97;4992172;28;20184;-70
2022/08/10 06:16:12;;;;;;;7.60;4.63;;;;;;;19.12;79.73;102913.03;4992120;28;20207;-69
2022/08/10 06:18:38;;;;;;;4.93;4.43;;;;;;;19.29;79.16;102907.31;4991831;28;20275;-71
2022/08/10 06:21:05;;;;;;;7.90;4.00;;;;;;;19.32;77.55;102909.97;4992177;28;20179;-68
2022/08/10 06:23:31;;;;;;;7.13;4.97;;;;;;;19.35;77.06;102906.56;4990557;28;20216;-70
2022/08/10 06:25:57;;;;;;;7.07;4.40;;;;;;;19.57;76.57;102906.91;4991341;28;20184;-71
2022/08/10 06:28:26;;;;;;;7.87;4.40;;;;;;;19.72;76.60;102901.06;4991416;28;20203;-71
2022/08/10 06:30:53;;;;;;;8.30;4.90;;;;;;;19.85;76.82;102901.28;4985257;28;20204;-71
2022/08/10 06:33:21;;;;;;;7.07;4.97;;;;;;;19.91;75.65;102908.28;4991313;28;20689;-71
2022/08/10 06:35:50;;;;;;;7.47;4.33;;;;;;;20.05;75.42;102909.38;4991407;28;20191;-71
2022/08/10 06:38:17;;;;;;;5.37;4.30;;;;;;;20.25;75.33;102907.94;4991208;28;20187;-71
2022/08/10 06:40:45;;;;;;;7.07;4.47;;;;;;;20.33;74.63;102904.59;4991379;28;20187;-71
2022/08/10 06:43:15;;;;;;;7.23;3.40;;;;;;;20.49;74.21;102900.44;4991273;28;20220;-70
2022/08/10 06:45:46;;;;;;;5.43;3.20;;;;;;;20.61;72.31;102897.97;4990915;28;20188;-71
2022/08/10 06:48:34;;;;;;;7.60;3.87;;;;;;;20.71;71.76;102895.47;4991119;28;20307;-70
2022/08/10 06:51:03;;;;;;;4.40;3.73;;;;;;;20.82;71.58;102893.00;4990940;28;20188;-71
2022/08/10 06:53:35;;;;;;;6.50;3.70;;;;;;;20.89;71.17;102890.47;4991543;28;20210;-70
2022/08/10 06:56:05;;;;;;;6.90;4.20;;;;;;;21.11;71.02;102895.06;4991034;28;20717;-70
2022/08/10 06:58:54;;;;;;;6.47;3.87;;;;;;;21.22;70.00;102887.31;4990796;28;20184;-71
2022/08/10 07:01:23;;;;;;;4.77;3.80;;;;;;;21.40;70.12;102882.25;4990921;28;20212;-71
2022/08/10 07:03:58;;;;;;;5.00;3.00;;;;;;;21.64;69.11;102885.94;4990956;28;20607;-70
2022/08/10 07:06:24;;;;;;;4.77;3.30;;;;;;;21.77;67.72;102884.28;4990741;28;20715;-71
2022/08/10 07:08:51;;;;;;;8.07;3.77;;;;;;;21.49;68.70;102885.81;4990806;28;20195;-70
2022/08/10 07:11:19;;;;;;;8.37;3.93;;;;;;;21.45;68.69;102888.38;4990040;28;20234;-71
2022/08/10 07:13:46;;;;;;;6.07;3.63;;;;;;;21.83;68.55;102880.00;4990212;28;20171;-70
2022/08/10 07:16:13;;;;;;;4.60;3.40;;;;;;;22.15;67.49;102883.66;4990692;28;20195;-70
2022/08/10 07:18:43;;;;;;;8.83;4.13;;;;;;;22.25;66.13;102876.75;4989065;28;20200;-71
2022/08/10 07:21:11;;;;;;;5.30;3.50;;;;;;;22.07;66.04;102880.13;4986358;28;20231;-71
2022/08/10 07:23:39;;;;;;;4.63;2.90;;;;;;;22.22;66.14;102887.16;4990569;28;20351;-72
2022/08/10 07:26:06;;;;;;;5.20;3.47;;;;;;;22.50;65.27;102889.03;4988826;28;20234;-72
2022/08/10 07:28:32;;;;;;;7.33;3.87;;;;;;;22.86;64.79;102886.53;4990126;28;20202;-70
2022/08/10 07:30:58;;;;;;;4.33;3.27;;;;;;;23.12;63.18;102891.78;4990074;28;20218;-69
2022/08/10 07:33:25;;;;;;;5.87;2.90;;;;;;;23.28;61.98;102893.56;4989861;28;20211;-69
2022/08/10 07:35:51;;;;;;;5.40;3.13;;;;;;;23.32;61.33;102896.19;4988881;28;20211;-69
2022/08/10 07:38:24;;;;;;;6.43;2.90;;;;;;;23.39;61.57;102895.31;4990165;28;20191;-70
2022/08/10 07:40:51;;;;;;;5.40;3.10;;;;;;;23.42;60.87;102891.81;4990244;28;20210;-71
2022/08/10 07:43:20;;;;;;;6.47;2.80;;;;;;;23.57;60.50;102894.44;4990081;28;20249;-70
2022/08/10 07:45:47;;;;;;;4.77;2.50;;;;;;;23.69;59.96;102892.66;4990313;28;20250;-71
2022/08/10 07:48:24;;;;;;;5.17;2.53;;;;;;;23.85;58.97;102896.13;4989975;28;20615;-71
2022/08/10 07:50:53;;;;;;;4.20;2.60;;;;;;;24.03;58.52;102898.75;4989987;28;20179;-71
2022/08/10 07:53:23;;;;;;;4.25;2.20;;;;;;;24.35;58.39;102896.88;4989837;28;20250;-71
2022/08/10 07:55:51;;;;;;;5.55;2.17;;;;;;;24.38;55.70;102897.72;4990431;28;20195;-71
2022/08/10 07:58:20;;;;;;;3.22;1.98;;;;;;;24.62;55.40;102896.75;4984828;28;20192;-73
2022/08/10 08:00:49;;;;;;;3.20;2.10;;;;;;;24.72;55.06;102899.31;4990152;28;20568;-72
2022/08/10 08:03:18;;;;;;;5.35;2.50;;;;;;;24.60;54.70;102898.53;4988537;28;20219;-72
2022/08/10 08:05:45;;;;;;;3.88;1.98;;;;;;;25.12;54.48;102894.69;4990180;28;20326;-72
2022/08/10 08:08:13;;;;;;;5.07;2.15;;;;;;;25.37;51.07;102896.28;4989630;28;20658;-72
2022/08/10 08:10:40;;;;;;;3.30;1.58;;;;;;;25.36;50.07;102890.13;4989967;28;20254;-71
2022/08/10 08:13:06;;;;;;;5.28;2.00;;;;;;;25.47;50.32;102885.66;4987869;28;20216;-72
2022/08/10 08:15:32;;;;;;;6.78;2.20;;;;;;;25.49;51.15;102890.91;5001158;28;20228;-71
2022/08/10 08:18:00;;;;;;;4.45;2.28;;;;;;;25.62;50.94;102892.53;5008959;28;20191;-71
2022/08/10 08:20:27;;;;;;;2.25;1.70;;;;;;;25.76;49.85;102888.88;4976184;28;20224;-71
2022/08/10 08:22:53;;;;;;;4.25;1.92;;;;;;;25.85;50.55;102890.53;4989499;28;20219;-71
2022/08/10 08:25:20;;;;;;;5.47;1.88;;;;;;;25.79;50.79;102883.59;4983779;28;20206;-70
2022/08/10 08:27:51;;;;;;;3.50;2.08;;;;;;;25.99;49.78;102889.53;4976513;28;20866;-70
2022/08/10 08:30:18;;;;;;;3.08;1.70;;;;;;;26.09;48.81;102885.03;4989916;28;20179;-71
2022/08/10 08:32:45;;;;;;;4.60;2.13;;;;;;;26.31;48.73;102882.16;4989607;28;20772;-70
2022/08/10 08:35:15;;;;;;;6.63;2.00;;;;;;;26.50;48.34;102878.38;4984078;28;20184;-71
2022/08/10 08:37:45;;;;;;;4.15;1.83;;;;;;;26.64;47.14;102884.34;4989754;28;20184;-71
2022/08/10 08:40:17;;;;;;;6.30;1.90;;;;;;;26.81;45.72;102876.22;4988050;28;20224;-71
2022/08/10 08:43:14;;;;;;;3.88;1.77;;;;;;;26.77;46.35;102872.75;4988090;28;20219;-71
2022/08/10 08:46:01;;;;;;;3.47;2.08;;;;;;;26.90;45.85;102881.31;4984861;28;20948;-72
2022/08/10 08:48:45;;;;;;;6.85;1.90;;;;;;;26.97;45.00;102875.94;4981424;28;20189;-69
2022/08/10 08:51:49;;;;;;;3.53;1.60;;;;;;;26.98;43.14;102871.56;4989492;28;20583;-69
2022/08/10 08:54:40;;;;;;;4.78;1.80;;;;;;;27.45;44.86;102869.03;4984199;28;20787;-70
2022/08/10 08:57:43;;;;;;;6.97;1.90;;;;;;;27.62;42.06;102865.19;4989604;28;20592;-71
2022/08/10 09:00:27;;;;;;;3.85;1.70;;;;;;;26.98;43.15;102875.03;4990048;28;20198;-70
2022/08/10 09:03:29;;;;;;;6.03;2.20;;;;;;;27.22;43.06;102864.16;4989720;28;20211;-70
2022/08/10 09:06:24;;;;;;;4.45;2.03;;;;;;;27.61;42.77;102863.47;4989714;28;20198;-70
2022/08/10 09:09:06;;;;;;;5.85;1.90;;;;;;;27.69;42.01;102856.28;4991707;28;20180;-69
2022/08/10 09:12:06;;;;;;;2.90;1.52;;;;;;;27.85;42.27;102857.75;4996594;23;20303;-77
2022/08/10 09:14:52;;;;;;;4.57;1.55;;;;;;;28.35;42.44;102852.28;4979145;28;20180;-80
2022/08/10 09:17:57;;;;;;;3.17;1.55;;;;;;;28.53;40.87;102857.19;4983057;28;20204;-80
2022/08/10 09:20:33;;;;;;;3.60;1.50;;;;;;;28.50;40.39;102851.97;4978392;28;20286;-79
2022/08/10 09:23:25;;;;;;;2.92;1.48;;;;;;;28.63;40.36;102848.16;4992840;28;20760;-80
2022/08/10 09:26:06;;;;;;;3.45;1.77;;;;;;;28.72;40.09;102847.06;4973920;28;20216;-80
2022/08/10 09:28:39;;;;;;;3.30;1.92;;;;;;;29.12;39.64;102842.59;4980221;28;20196;-77
2022/08/10 09:31:10;;;;;;;4.25;1.70;;;;;;;28.86;40.51;102840.56;4991714;28;20207;-78
2022/08/10 09:33:35;;;;;;;4.53;1.70;;;;;;;28.82;39.19;102840.66;4999918;28;20184;-78
2022/08/10 09:36:16;;;;;;;3.13;1.45;;;;;;;29.28;39.65;102841.28;4998926;28;20192;-78
2022/08/10 09:38:53;;;;;;;5.20;1.67;;;;;;;29.29;37.36;102845.69;4981731;28;20662;-80
2022/08/10 09:41:24;;;;;;;2.63;1.35;;;;;;;29.14;38.36;102836.38;4982794;28;20226;-78
2022/08/10 09:44:02;;;;;;;2.30;1.52;;;;;;;28.95;38.65;102840.34;4965275;28;20215;-78
2022/08/10 09:47:25;;;;;;;2.95;1.88;;;;;;;29.46;38.70;102840.81;4952856;28;20203;-80
2022/08/10 09:50:10;;;;;;;3.38;1.30;;;;;;;28.70;39.67;102843.63;4925593;29;20275;-78
2022/08/10 09:53:03;;;;;;;2.50;1.40;;;;;;;28.39;39.80;102842.53;4952184;29;20193;-77
2022/08/10 09:55:58;;;;;;;3.28;1.27;;;;;;;27.92;39.67;102842.69;4957907;28;20235;-77
2022/08/10 09:58:33;;;;;;;4.47;1.50;;;;;;;27.69;39.94;102843.13;4989465;28;20192;-79
2022/08/10 10:01:28;;;;;;;2.20;1.10;;;;;;;27.55;41.30;102844.25;4997182;28;20215;-78
2022/08/10 10:04:15;;;;;;;3.38;1.30;;;;;;;27.35;40.79;102839.34;4980886;28;20220;-80
2022/08/10 10:06:56;;;;;;;3.47;1.40;;;;;;;27.16;42.16;102844.91;4999056;28;20218;-78
2022/08/10 10:09:37;;;;;;;3.33;1.38;;;;;;;26.98;40.82;102848.72;4997077;28;20212;-80
2022/08/10 10:12:21;;;;;;;2.45;1.40;;;;;;;26.89;41.54;102841.00;4998709;28;20176;-78
2022/08/10 10:15:19;;;;;;;2.55;1.30;;;;;;;27.12;41.15;102830.97;4997725;28;20274;-77
2022/08/10 10:18:03;;;;;;;3.05;1.40;;;;;;;27.38;41.57;102827.91;4983311;28;20186;-79
2022/08/10 10:20:51;;;;;;;3.35;1.30;;;;;;;27.75;40.09;102827.19;4981033;28;20220;-78
2022/08/10 10:23:20;;;;;;;4.15;1.20;;;;;;;28.40;38.47;102821.44;4981808;28;20216;-81
2022/08/10 10:26:08;;;;;;;3.00;1.33;;;;;;;28.92;38.72;102814.03;4971385;28;20434;-80
2022/08/10 10:29:06;;;;;;;4.50;1.45;;;;;;;29.21;37.16;102816.84;4979507;28;20267;-80
2022/08/10 10:31:37;;;;;;;7.57;1.88;;;;;;;29.51;37.58;102800.16;4962393;28;20183;-81
2022/08/10 10:34:21;;;;;;;1.90;1.30;;;;;;;29.73;36.42;102808.38;4968275;28;20185;-79
2022/08/10 10:36:52;;;;;;;3.72;1.50;;;;;;;29.66;36.12;102801.53;4978045;28;20191;-79
2022/08/10 10:39:23;;;;;;;3.35;1.45;;;;;;;30.08;36.70;102801.13;4976870;28;20682;-79
2022/08/10 10:41:58;;;;;;;2.22;1.40;;;;;;;30.41;35.28;102788.69;4978273;28;20180;-80
2022/08/10 10:44:51;;;;;;;3.47;1.42;;;;;;;30.36;34.59;102792.41;4980292;28;20276;-80
2022/08/10 10:47:55;;;;;;;2.70;1.50;;;;;;;30.54;34.27;102786.53;4979424;28;20203;-80
2022/08/10 10:50:42;;;;;;;2.90;1.50;;;;;;;30.19;35.14;102784.97;4978310;28;20613;-79
2022/08/10 10:53:26;;;;;;;2.75;1.48;;;;;;;30.61;35.29;102788.91;4980230;28;20176;-79
2022/08/10 10:56:04;;;;;;;3.35;1.20;;;;;;;30.79;35.13;102782.22;4964123;28;20188;-81
2022/08/10 10:58:44;;;;;;;3.53;1.40;;;;;;;30.71;34.02;102773.66;4979908;28;20176;-80
2022/08/10 11:01:21;;;;;;;2.45;1.42;;;;;;;30.72;35.22;102772.72;4981949;28;20208;-79
2022/08/10 11:04:00;;;;;;;3.13;1.50;;;;;;;30.68;35.10;102777.25;4964751;28;20235;-80
2022/08/10 11:07:03;;;;;;;2.92;1.30;;;;;;;30.65;33.83;102768.53;4959609;28;20208;-80
2022/08/10 11:09:41;;;;;;;4.00;1.48;;;;;;;31.02;35.02;102769.06;4958178;28;20223;-82
2022/08/10 11:12:23;;;;;;;2.33;1.23;;;;;;;31.14;34.31;102780.06;4976360;28;20169;-80
2022/08/10 11:15:07;;;;;;;4.63;1.42;;;;;;;31.51;34.21;102775.22;4962932;28;20181;-82
2022/08/10 11:17:54;;;;;;;3.13;1.40;;;;;;;31.43;34.11;102771.09;4972913;28;20249;-81
2022/08/10 11:20:32;;;;;;;3.75;1.40;;;;;;;31.25;33.27;102771.81;4976690;28;20573;-82
2022/08/10 11:23:47;;;;;;;2.28;1.20;;;;;;;31.18;33.67;102771.13;4978539;28;20314;-80
2022/08/10 11:27:01;;;;;;;2.67;1.30;;;;;;;31.27;33.62;102762.88;4979954;28;20245;-81
2022/08/10 11:30:12;;;;;;;2.17;1.30;;;;;;;31.29;35.04;102762.78;4977510;28;20448;-80
2022/08/10 11:33:20;;;;;;;4.68;1.30;;;;;;;30.91;33.46;102763.25;4977598;28;20195;-81
2022/08/10 11:36:18;;;;;;;2.95;1.20;;;;;;;31.01;33.95;102754.06;4958643;28;20228;-78
2022/08/10 11:39:12;;;;;;;1.85;1.00;;;;;;;31.39;33.64;102757.13;4960924;29;20189;-80
2022/08/10 11:41:46;;;;;;;3.70;1.48;;;;;;;31.55;33.66;102754.78;4961952;29;20612;-79
2022/08/10 11:44:20;;;;;;;2.33;1.25;;;;;;;31.17;32.44;102747.31;4976245;28;20219;-81
2022/08/10 11:47:04;;;;;;;3.42;1.40;;;;;;;30.98;33.85;102752.38;4941078;29;20647;-79
2022/08/10 11:49:57;;;;;;;2.38;1.40;;;;;;;31.20;34.20;102749.84;4975448;28;20236;-79
2022/08/10 11:56:18;;;;;;;2.75;1.35;;;;;;;30.83;33.64;102744.09;4953746;28;20216;-81
2022/08/10 12:02:19;;;;;;;3.85;1.95;;;;;;;30.92;34.62;102728.78;4979473;28;20200;-82
2022/08/10 12:05:48;;;;;;;;;;;;;;;;;;;;;
2022/08/10 12:08:38;;;;;;;2.95;1.40;;;;;;;31.85;33.58;102732.44;4978482;28;20193;-80